BADAN METEOROLOGI KLIMATOLOGI
DAN GEOFISIKA
Stasiun Meterologi Klas I
Frans Kaisiepo Biak
MET/SPECIAL REPORT


MET REPORT WABB 220030Z WIND 120/6KT VIS 10KM CLD FEW 1800FT SCT 10000FT T30 DP25 QNH 1010HPA QFE 1008HPA TREND NOSIG=

MET REPORT WABB 220100Z WIND 130/5KT VIS 10KM CLD FEW 1800FT SCT 10000FT T31 DP25 QNH 1010HPA QFE 1008HPA TREND NOSIG=

MET REPORT WABB 220130Z WIND 130/6KT VRB BTN 160/ AND 100/ VIS 10KM CLD FEW 1800FT SCT 10000FT T31 DP25 QNH 1009HPA QFE 1008HPA TREND NOSIG=

MET REPORT WABB 220200Z WIND 120/8KT VIS 10KM CLD FEW 1800FT SCT 10000FT T30 DP25 QNH 1009HPA QFE 1007HPA TREND NOSIG=

MET REPORT WABB 220230Z WIND 110/9KT VRB BTN 160/ AND 100/ VIS 10KM CLD SCT 1800FT SCT 10000FT T31 DP25 QNH 1009HPA QFE 1007HPA TREND NOSIG=

METAR/SPECI


METAR WABB 220030Z 12006KT 9999 FEW018 SCT100 30/25 Q1010 NOSIG=

METAR WABB 220100Z 13005KT 9999 FEW018 SCT100 31/25 Q1010 NOSIG=

METAR WABB 220130Z 13006KT 160V100 9999 FEW018 SCT100 31/25 Q1009 NOSIG=

METAR WABB 220200Z 12008KT 9999 FEW018 SCT100 30/25 Q1009 NOSIG=

METAR WABB 220230Z 11009KT 160V100 9999 SCT018 SCT100 31/25 Q1009 NOSIG=

TAFOR


TAF WABB 210500Z 2106/2212 30007KT 9999 SCT018
BECMG 2112/2114 00000KT=

TAF WABO 210500Z 2106/2206 21005KT 9999 SCT013
BECMG 2110/2112 00000KT 5000=

TAF WABI 210500Z 2106/2206 31007KT 9999 FEW016
BECMG 2110/2112 00000KT 5000=

TAF WAYE 210500Z 2106/2206 20004KT 8000 SCT008
BECMG 2110/2112 00000KT=

TAF WAYY 210500Z 2106/2206 07006KT 8000 BKN014
TEMPO 2106/2109 3000 RA
BECMG 2114/2116 6000=


Stasiun Meteorologi Klas I Frans Kaisiepo Biak
Jl.Moh Yamin
Telp. (0981)25373-22824
PO.Box 132 - Biak 98101
Email : stamet.biak@bmkg.go.id

Layanan 1 x 24 jam
Telp. (0981)21742 (Forecaster Onduty)
WhatsApp (+628114822994)
Email : forecaster.biak@gmail.com

Design by : Eko | Herald
Stasiun Meteorologi Klas I Frans Kaisiepo Biak